Time;durP1;ratioP1;P1;durP2;ratioP2;P2;SDS_P1;SDS_P2;PMS_P1;PMS_P2;Temp;Humidity;BMP_temperature;BMP_pressure;BME280_temperature;BME280_humidity;BME280_pressure;Samples;Min_cycle;Max_cycle;Signal;HPM_P1;HPM_P2
2021/10/25 00:00:11;;;;;;;31.73;28.33;;;5.40;99.90;;;;;;4913636;29;20485;-74
2021/10/25 00:02:37;;;;;;;33.33;30.23;;;5.40;99.90;;;;;;4913259;29;20456;-75
2021/10/25 00:05:05;;;;;;;32.40;29.20;;;5.40;99.90;;;;;;4913424;29;20963;-75
2021/10/25 00:07:32;;;;;;;33.53;30.43;;;5.40;99.90;;;;;;4913740;29;20460;-75
2021/10/25 00:10:00;;;;;;;32.60;29.43;;;5.40;99.90;;;;;;4913826;29;20485;-75
2021/10/25 00:12:27;;;;;;;34.20;30.93;;;5.40;99.90;;;;;;4913627;29;20455;-75
2021/10/25 00:14:55;;;;;;;35.10;31.70;;;5.30;99.90;;;;;;4912918;29;20922;-75
2021/10/25 00:17:22;;;;;;;32.53;29.33;;;5.30;99.90;;;;;;4913628;29;20507;-75
2021/10/25 00:19:49;;;;;;;32.43;29.47;;;5.40;99.90;;;;;;4913361;29;20496;-75
2021/10/25 00:22:16;;;;;;;29.90;26.90;;;5.30;99.90;;;;;;4913549;29;20465;-74
2021/10/25 00:24:43;;;;;;;31.87;28.97;;;5.30;99.90;;;;;;4913644;29;20485;-74
2021/10/25 00:27:10;;;;;;;32.87;29.67;;;5.30;99.90;;;;;;4913290;29;20473;-74
2021/10/25 00:29:36;;;;;;;32.13;29.03;;;5.30;99.90;;;;;;4913424;29;20473;-76
2021/10/25 00:32:05;;;;;;;30.83;27.87;;;5.30;99.90;;;;;;4913349;29;20495;-75
2021/10/25 00:34:31;;;;;;;31.07;28.07;;;5.30;99.90;;;;;;4913213;29;20950;-75
2021/10/25 00:37:02;;;;;;;32.27;28.97;;;5.30;99.90;;;;;;4913391;29;20961;-73
2021/10/25 00:39:29;;;;;;;32.73;29.50;;;5.30;99.90;;;;;;4913195;29;20526;-75
2021/10/25 00:41:56;;;;;;;33.10;29.90;;;5.40;99.90;;;;;;4913400;29;20559;-74
2021/10/25 00:44:24;;;;;;;34.53;31.07;;;5.40;99.90;;;;;;4913338;29;20457;-78
2021/10/25 00:46:50;;;;;;;32.50;29.47;;;5.40;99.90;;;;;;4913281;29;20479;-77
2021/10/25 00:49:19;;;;;;;33.30;30.17;;;5.40;99.90;;;;;;4912916;29;20443;-76
2021/10/25 00:51:45;;;;;;;31.10;28.20;;;5.40;99.90;;;;;;4915080;29;20452;-76
2021/10/25 00:54:12;;;;;;;31.70;27.97;;;5.30;99.90;;;;;;4916236;29;20985;-75
2021/10/25 00:56:43;;;;;;;31.87;28.57;;;5.30;99.90;;;;;;4916387;29;20497;-75
2021/10/25 00:59:10;;;;;;;32.60;28.27;;;5.30;99.90;;;;;;4916553;29;21015;-76
2021/10/25 01:01:37;;;;;;;29.60;27.10;;;5.40;99.90;;;;;;4916420;29;20465;-75
2021/10/25 01:04:05;;;;;;;32.30;29.50;;;5.20;99.90;;;;;;4916490;29;20485;-75
2021/10/25 01:06:33;;;;;;;30.47;27.53;;;5.20;99.90;;;;;;4916431;29;20455;-75
2021/10/25 01:09:00;;;;;;;34.37;30.73;;;5.20;99.90;;;;;;4916839;29;20462;-74
2021/10/25 01:11:27;;;;;;;31.77;28.90;;;5.20;99.90;;;;;;4916733;29;20511;-75
2021/10/25 01:13:54;;;;;;;29.43;26.60;;;5.10;99.90;;;;;;4916721;29;20452;-75
2021/10/25 01:16:21;;;;;;;31.80;28.80;;;5.10;99.90;;;;;;4916643;29;20454;-74
2021/10/25 01:18:49;;;;;;;31.90;28.70;;;5.10;99.90;;;;;;4916536;29;20474;-75
2021/10/25 01:21:17;;;;;;;30.23;27.37;;;5.10;99.90;;;;;;4916327;29;20592;-74
2021/10/25 01:23:44;;;;;;;31.53;28.63;;;5.10;99.90;;;;;;4916360;29;20462;-74
2021/10/25 01:26:11;;;;;;;31.70;28.90;;;5.10;99.90;;;;;;4916818;29;20455;-74
2021/10/25 01:28:38;;;;;;;31.13;28.10;;;5.00;99.90;;;;;;4916437;29;20460;-75
2021/10/25 01:31:05;;;;;;;31.63;28.50;;;5.10;99.90;;;;;;4916552;29;20483;-75
2021/10/25 01:33:34;;;;;;;32.30;29.40;;;5.10;99.90;;;;;;4916429;29;20501;-75
2021/10/25 01:36:01;;;;;;;30.90;28.00;;;5.10;99.90;;;;;;4916445;29;20469;-73
2021/10/25 01:38:29;;;;;;;33.60;30.30;;;5.10;99.90;;;;;;4916421;29;21024;-73
2021/10/25 01:40:56;;;;;;;33.47;30.47;;;5.20;99.90;;;;;;4916281;29;20494;-74
2021/10/25 01:43:23;;;;;;;31.03;28.43;;;5.20;99.90;;;;;;4916312;29;20455;-74
2021/10/25 01:45:49;;;;;;;31.30;28.47;;;5.20;99.90;;;;;;4915983;29;20949;-73
2021/10/25 01:48:16;;;;;;;33.50;30.37;;;5.20;99.90;;;;;;4916144;29;20572;-73
2021/10/25 01:50:43;;;;;;;31.70;28.63;;;5.20;99.90;;;;;;4916157;29;20484;-74
2021/10/25 01:53:10;;;;;;;29.83;27.20;;;5.20;99.90;;;;;;4916095;29;20522;-73
2021/10/25 01:55:38;;;;;;;29.83;27.27;;;5.30;99.90;;;;;;4918137;29;20949;-73
2021/10/25 01:58:05;;;;;;;30.93;28.23;;;5.30;99.90;;;;;;4921666;29;20466;-74
2021/10/25 02:00:32;;;;;;;30.93;28.10;;;5.30;99.90;;;;;;4915837;29;20585;-74
2021/10/25 02:03:00;;;;;;;31.13;28.43;;;5.30;99.90;;;;;;4915530;29;20490;-73
2021/10/25 02:05:27;;;;;;;29.30;26.70;;;5.20;99.90;;;;;;4915985;29;20917;-72
2021/10/25 02:07:53;;;;;;;31.03;28.20;;;5.20;99.90;;;;;;4915704;29;20463;-72
2021/10/25 02:10:20;;;;;;;31.00;28.17;;;5.20;99.90;;;;;;4915293;29;20456;-74
2021/10/25 02:12:48;;;;;;;30.17;27.27;;;5.20;99.90;;;;;;4915903;29;20466;-73
2021/10/25 02:15:15;;;;;;;30.50;27.60;;;5.20;99.90;;;;;;4915644;29;20972;-73
2021/10/25 02:17:42;;;;;;;28.63;26.27;;;5.20;99.90;;;;;;4915827;29;20450;-74
2021/10/25 02:20:10;;;;;;;31.20;28.40;;;5.20;99.90;;;;;;4915513;29;20491;-72
2021/10/25 02:22:37;;;;;;;30.50;27.67;;;5.10;99.90;;;;;;4915538;29;20453;-72
2021/10/25 02:25:05;;;;;;;28.60;25.73;;;5.10;99.90;;;;;;4915485;29;20843;-72
2021/10/25 02:27:31;;;;;;;31.00;27.73;;;5.10;99.90;;;;;;4915252;29;20464;-72
2021/10/25 02:29:59;;;;;;;27.33;24.90;;;5.10;99.90;;;;;;4915429;29;20831;-72
2021/10/25 02:32:26;;;;;;;29.70;26.87;;;5.10;99.90;;;;;;4915087;29;20468;-74
2021/10/25 02:34:53;;;;;;;31.27;28.57;;;5.10;99.90;;;;;;4915211;29;20458;-74
2021/10/25 02:37:20;;;;;;;29.50;27.00;;;5.00;99.90;;;;;;4915222;29;20462;-74
2021/10/25 02:39:47;;;;;;;28.30;25.80;;;5.10;99.90;;;;;;4915189;29;20519;-75
2021/10/25 02:42:14;;;;;;;28.57;25.93;;;5.00;99.90;;;;;;4915122;29;20577;-74
2021/10/25 02:44:42;;;;;;;30.30;27.33;;;5.00;99.90;;;;;;4915058;29;20548;-74
2021/10/25 02:47:11;;;;;;;27.90;25.50;;;5.00;99.90;;;;;;4914949;29;20822;-74
2021/10/25 02:49:38;;;;;;;26.80;24.60;;;4.90;99.90;;;;;;4915164;29;20491;-74
2021/10/25 02:52:05;;;;;;;27.63;25.23;;;4.90;99.90;;;;;;4914820;29;20458;-74
2021/10/25 02:54:32;;;;;;;27.00;24.70;;;4.90;99.90;;;;;;4914491;29;20555;-74
2021/10/25 02:56:59;;;;;;;27.53;25.00;;;4.80;99.90;;;;;;4914876;29;20995;-74
2021/10/25 02:59:25;;;;;;;28.63;26.10;;;4.80;99.90;;;;;;4915169;29;20555;-73
2021/10/25 03:01:52;;;;;;;28.30;25.80;;;4.80;99.90;;;;;;4914660;29;20798;-74
2021/10/25 03:04:20;;;;;;;28.83;26.70;;;4.80;99.90;;;;;;4914732;29;20469;-74
2021/10/25 03:06:47;;;;;;;28.13;25.60;;;4.80;99.90;;;;;;4914403;29;20462;-74
2021/10/25 03:09:14;;;;;;;30.53;28.03;;;4.80;99.90;;;;;;4914800;29;20462;-74
2021/10/25 03:11:40;;;;;;;29.67;26.80;;;4.70;99.90;;;;;;4914568;29;20455;-74
2021/10/25 03:14:07;;;;;;;28.77;26.67;;;4.80;99.90;;;;;;4914014;29;20466;-74
2021/10/25 03:16:34;;;;;;;29.90;27.37;;;4.80;99.90;;;;;;4914575;29;20469;-75
2021/10/25 03:19:01;;;;;;;30.23;27.77;;;4.80;99.90;;;;;;4914611;29;20451;-75
2021/10/25 03:21:29;;;;;;;31.40;28.67;;;4.80;99.90;;;;;;4914863;29;20501;-75
2021/10/25 03:23:58;;;;;;;29.27;26.87;;;4.80;99.90;;;;;;4914570;29;20817;-74
2021/10/25 03:26:25;;;;;;;28.57;26.27;;;4.70;99.90;;;;;;4914824;29;20829;-74
2021/10/25 03:28:52;;;;;;;31.17;28.17;;;4.70;99.90;;;;;;4914421;29;20457;-73
2021/10/25 03:31:20;;;;;;;28.47;25.67;;;4.70;99.90;;;;;;4914553;29;20486;-73
2021/10/25 03:33:47;;;;;;;29.77;26.87;;;4.60;99.90;;;;;;4914297;29;20833;-74
2021/10/25 03:36:16;;;;;;;28.27;25.97;;;4.60;99.90;;;;;;4916902;29;20464;-74
2021/10/25 03:38:45;;;;;;;28.37;25.93;;;4.60;99.90;;;;;;4918493;29;20547;-74
2021/10/25 03:41:16;;;;;;;29.63;26.80;;;4.60;99.90;;;;;;4916145;29;20505;-73
2021/10/25 03:43:47;;;;;;;29.93;27.43;;;4.60;99.90;;;;;;4914626;29;20486;-74
2021/10/25 03:46:20;;;;;;;27.97;25.80;;;4.60;99.90;;;;;;4914495;29;20502;-74
2021/10/25 03:48:51;;;;;;;29.57;27.00;;;4.60;99.90;;;;;;4914470;29;20597;-74
2021/10/25 03:51:19;;;;;;;27.53;25.43;;;4.50;99.90;;;;;;4914297;29;21101;-73
2021/10/25 03:53:54;;;;;;;28.63;26.33;;;4.50;99.90;;;;;;4914103;29;20458;-73
2021/10/25 03:56:35;;;;;;;31.93;28.97;;;4.50;99.90;;;;;;4913999;29;20521;-77
2021/10/25 03:59:25;;;;;;;29.33;26.87;;;4.50;99.90;;;;;;4914051;29;20521;-74
2021/10/25 04:26:52;;;;;;;30.17;27.60;;;4.50;99.90;;;;;;4915804;29;20942;-75
2021/10/25 04:29:21;;;;;;;32.23;29.20;;;4.50;99.90;;;;;;4917370;29;20504;-75
2021/10/25 04:31:48;;;;;;;31.40;28.30;;;4.50;99.90;;;;;;4917659;29;20454;-75
2021/10/25 04:34:15;;;;;;;31.67;29.03;;;4.50;99.90;;;;;;4917403;29;20458;-75
2021/10/25 04:36:42;;;;;;;34.13;30.73;;;4.50;99.90;;;;;;4917766;29;20454;-75
2021/10/25 04:39:10;;;;;;;31.70;29.00;;;4.50;99.90;;;;;;4917310;29;20957;-75
2021/10/25 04:41:38;;;;;;;32.43;29.90;;;4.50;99.90;;;;;;4917223;29;20498;-75
2021/10/25 04:44:05;;;;;;;32.30;29.43;;;4.50;99.90;;;;;;4917256;29;20506;-75
2021/10/25 04:46:33;;;;;;;31.77;29.10;;;4.50;99.90;;;;;;4917435;29;20462;-74
2021/10/25 04:49:00;;;;;;;30.00;27.50;;;4.60;99.90;;;;;;4917349;29;20458;-76
2021/10/25 04:51:28;;;;;;;31.63;28.63;;;4.50;99.90;;;;;;4917476;29;20446;-76
2021/10/25 04:53:55;;;;;;;30.97;28.37;;;4.60;99.90;;;;;;4917181;29;20486;-75
2021/10/25 04:56:22;;;;;;;32.60;29.67;;;4.60;99.90;;;;;;4917007;29;20900;-75
2021/10/25 04:58:50;;;;;;;33.80;30.53;;;4.50;99.90;;;;;;4917242;29;20450;-75
2021/10/25 05:01:17;;;;;;;30.30;27.73;;;4.50;99.90;;;;;;4916870;29;20497;-75
2021/10/25 05:03:44;;;;;;;30.23;27.43;;;4.50;99.90;;;;;;4917280;29;20454;-76
2021/10/25 05:06:17;;;;;;;30.90;27.37;;;4.50;99.90;;;;;;4917084;29;20446;-76
2021/10/25 05:08:43;;;;;;;31.30;28.20;;;4.50;99.90;;;;;;4916851;29;20465;-76
2021/10/25 05:11:10;;;;;;;29.67;27.17;;;4.50;99.90;;;;;;4916964;29;20828;-76
2021/10/25 05:13:37;;;;;;;31.80;29.10;;;4.50;99.90;;;;;;4916946;29;20454;-76
2021/10/25 05:16:06;;;;;;;29.90;27.60;;;4.50;99.90;;;;;;4916799;29;20458;-76
2021/10/25 05:18:32;;;;;;;30.73;27.93;;;4.50;99.90;;;;;;4916575;29;20458;-76
2021/10/25 05:20:59;;;;;;;34.13;30.77;;;4.50;99.90;;;;;;4916823;29;20496;-76
2021/10/25 05:23:26;;;;;;;32.53;29.50;;;4.50;99.90;;;;;;4916783;29;20461;-75
2021/10/25 05:25:53;;;;;;;32.00;29.00;;;4.50;99.90;;;;;;4916732;29;20458;-76
2021/10/25 05:28:20;;;;;;;50.43;45.20;;;4.50;99.90;;;;;;4916523;29;20462;-75
2021/10/25 05:30:47;;;;;;;41.23;37.20;;;4.40;99.90;;;;;;4916448;29;20470;-75
2021/10/25 05:33:15;;;;;;;33.07;29.63;;;4.40;99.90;;;;;;4916723;29;20830;-77
2021/10/25 05:35:42;;;;;;;35.67;32.37;;;4.40;99.90;;;;;;4916935;29;20462;-77
2021/10/25 05:38:09;;;;;;;34.10;31.10;;;4.40;99.90;;;;;;4916034;29;20486;-76
2021/10/25 05:40:38;;;;;;;35.33;31.80;;;4.40;99.90;;;;;;4916131;29;20541;-77
2021/10/25 05:43:04;;;;;;;34.87;31.57;;;4.40;99.90;;;;;;4916424;29;20466;-77
2021/10/25 05:45:31;;;;;;;37.27;33.87;;;4.40;99.90;;;;;;4916577;29;20463;-76
2021/10/25 05:47:58;;;;;;;37.00;33.30;;;4.40;99.90;;;;;;4916439;29;20465;-76
2021/10/25 05:50:26;;;;;;;36.43;32.83;;;4.40;99.90;;;;;;4914623;29;20868;-75
2021/10/25 05:52:53;;;;;;;34.07;30.83;;;4.40;99.90;;;;;;4916409;29;20481;-75
2021/10/25 05:55:23;;;;;;;39.90;36.40;;;4.40;99.90;;;;;;4915923;29;20699;-75
2021/10/25 05:57:51;;;;;;;39.00;35.40;;;4.40;99.90;;;;;;4915610;29;20617;-75
2021/10/25 06:00:20;;;;;;;33.87;30.63;;;4.50;99.90;;;;;;4915592;29;20458;-75
2021/10/25 06:02:53;;;;;;;32.83;29.90;;;4.50;99.90;;;;;;4915263;29;20466;-75
2021/10/25 06:05:20;;;;;;;33.03;29.67;;;4.50;99.90;;;;;;4915655;29;20974;-76
2021/10/25 06:07:49;;;;;;;37.43;33.63;;;4.50;99.90;;;;;;4915543;29;20462;-81
2021/10/25 06:10:17;;;;;;;35.50;31.90;;;4.50;99.90;;;;;;4915792;29;20450;-79
2021/10/25 06:12:46;;;;;;;37.87;33.97;;;4.50;99.90;;;;;;4916187;29;20894;-77
2021/10/25 06:15:17;;;;;;;39.13;35.30;;;4.50;99.90;;;;;;4914739;29;20454;-76
2021/10/25 06:17:54;;;;;;;41.57;37.47;;;4.50;99.90;;;;;;4915241;29;20568;-76
2021/10/25 06:20:23;;;;;;;35.20;31.20;;;4.60;99.90;;;;;;4915209;29;20989;-74
2021/10/25 06:22:51;;;;;;;33.53;30.37;;;4.70;99.90;;;;;;4914515;29;20463;-73
2021/10/25 06:25:22;;;;;;;31.10;28.07;;;4.70;99.90;;;;;;4913559;29;20458;-75
2021/10/25 13:23:45;;;;;;;26.20;16.47;;;19.00;80.60;;;;;;6019612;23;20408;-77
2021/10/25 13:26:12;;;;;;;18.67;16.73;;;19.10;80.50;;;;;;4982754;28;20522;-79
2021/10/25 13:28:40;;;;;;;17.10;15.80;;;19.00;80.50;;;;;;4990597;28;20459;-78
2021/10/25 13:31:07;;;;;;;15.23;13.90;;;18.90;79.30;;;;;;4989907;28;20463;-78
2021/10/25 13:33:35;;;;;;;14.40;13.60;;;18.60;79.50;;;;;;4990993;28;20447;-79
2021/10/25 13:36:02;;;;;;;15.43;14.40;;;18.50;79.70;;;;;;4979972;28;20455;-80
2021/10/25 13:38:29;;;;;;;14.30;13.30;;;18.40;80.10;;;;;;4974223;28;20470;-80
2021/10/25 13:40:57;;;;;;;13.40;12.53;;;18.30;80.00;;;;;;4974299;28;20675;-79
2021/10/25 13:43:24;;;;;;;14.30;13.40;;;18.10;80.50;;;;;;4973862;28;20485;-79
2021/10/25 13:45:50;;;;;;;15.27;14.37;;;18.10;81.40;;;;;;4973678;28;20945;-79
2021/10/25 13:48:17;;;;;;;17.00;15.07;;;18.00;81.60;;;;;;4973556;28;20534;-79
2021/10/25 13:50:44;;;;;;;15.90;14.67;;;18.10;81.20;;;;;;4973279;28;20448;-80
2021/10/25 13:53:11;;;;;;;17.43;15.77;;;18.10;82.20;;;;;;4973157;28;20459;-79
2021/10/25 13:55:37;;;;;;;16.07;14.50;;;18.10;84.50;;;;;;4973331;28;20455;-79
2021/10/25 13:58:06;;;;;;;15.53;14.43;;;18.20;83.20;;;;;;4973043;28;20460;-79
2021/10/25 14:00:33;;;;;;;15.00;14.10;;;18.20;83.00;;;;;;4973291;28;20460;-78
2021/10/25 14:03:00;;;;;;;17.23;16.13;;;18.20;82.00;;;;;;4973192;28;20509;-79
2021/10/25 14:05:28;;;;;;;16.30;15.10;;;18.30;80.80;;;;;;4972984;28;20814;-79
2021/10/25 14:07:54;;;;;;;16.30;15.37;;;18.40;80.10;;;;;;4972790;28;20717;-78
2021/10/25 14:10:25;;;;;;;14.20;13.40;;;18.40;79.50;;;;;;4972670;28;20451;-78
2021/10/25 14:12:52;;;;;;;27.07;14.47;;;18.40;78.00;;;;;;4972610;28;20479;-81
2021/10/25 14:15:27;;;;;;;35.23;15.83;;;18.40;79.10;;;;;;4972781;28;20562;-79
2021/10/25 14:17:56;;;;;;;26.43;15.20;;;18.40;78.70;;;;;;4973005;28;20951;-82
2021/10/25 14:20:26;;;;;;;25.27;15.83;;;18.30;78.30;;;;;;4972484;28;20502;-79
2021/10/25 14:22:54;;;;;;;25.57;14.50;;;18.30;79.20;;;;;;4972489;28;20497;-79
2021/10/25 14:25:21;;;;;;;16.33;15.17;;;18.30;80.80;;;;;;4972506;28;20602;-79
2021/10/25 14:27:48;;;;;;;15.23;14.20;;;18.20;77.90;;;;;;4972824;28;21150;-79
2021/10/25 14:30:16;;;;;;;14.53;13.53;;;18.10;76.00;;;;;;4972617;28;20460;-79
2021/10/25 14:32:45;;;;;;;15.00;14.00;;;18.10;75.00;;;;;;4972345;28;20456;-80
2021/10/25 14:35:12;;;;;;;14.93;13.60;;;18.20;74.00;;;;;;4972864;28;20473;-79
2021/10/25 14:37:41;;;;;;;13.80;12.57;;;18.20;75.50;;;;;;4972855;28;20571;-79
2021/10/25 14:40:11;;;;;;;20.07;13.87;;;18.10;75.50;;;;;;4972587;28;20459;-78
2021/10/25 14:42:40;;;;;;;14.33;12.90;;;17.90;75.20;;;;;;4974007;28;20530;-80
2021/10/25 14:45:15;;;;;;;15.43;14.03;;;17.70;74.50;;;;;;4972287;28;20454;-80
2021/10/25 14:48:02;;;;;;;17.87;14.00;;;17.50;77.00;;;;;;4972232;28;20467;-80
2021/10/25 14:53:31;;;;;;;14.07;12.80;;;17.20;80.80;;;;;;4972096;28;20426;-80
2021/10/25 14:56:01;;;;;;;15.87;14.60;;;17.10;82.00;;;;;;4971934;28;20464;-80
2021/10/25 14:58:29;;;;;;;17.73;14.23;;;16.90;82.60;;;;;;4971671;28;20466;-80
2021/10/25 15:00:58;;;;;;;22.43;15.67;;;16.80;84.00;;;;;;4970572;28;20459;-80
2021/10/25 15:03:26;;;;;;;29.20;14.80;;;16.70;85.50;;;;;;4972177;28;20499;-80
2021/10/25 15:05:54;;;;;;;13.53;12.80;;;16.60;86.30;;;;;;4971743;28;20514;-80
2021/10/25 15:08:21;;;;;;;14.23;13.13;;;16.50;87.30;;;;;;4971550;28;20499;-79
2021/10/25 15:10:48;;;;;;;13.90;13.10;;;16.40;88.40;;;;;;4971113;28;20471;-80
2021/10/25 15:13:15;;;;;;;13.93;13.03;;;16.30;90.00;;;;;;4971855;28;20447;-80
2021/10/25 15:15:42;;;;;;;13.50;12.70;;;16.20;90.70;;;;;;4971729;28;20462;-80
2021/10/25 15:18:10;;;;;;;14.20;13.20;;;16.10;91.20;;;;;;4971694;28;20541;-80
2021/10/25 15:20:39;;;;;;;12.97;12.13;;;16.00;91.50;;;;;;4971381;28;20482;-80
2021/10/25 15:23:06;;;;;;;14.13;13.33;;;15.90;92.00;;;;;;4971390;28;20496;-80
2021/10/25 15:25:35;;;;;;;14.23;13.23;;;15.90;92.60;;;;;;4970019;28;20832;-80
2021/10/25 15:28:02;;;;;;;14.93;13.80;;;15.90;93.00;;;;;;4971511;28;20531;-80
2021/10/25 15:30:29;;;;;;;14.87;13.80;;;15.80;93.40;;;;;;4971450;28;20460;-80
2021/10/25 15:32:56;;;;;;;14.87;13.47;;;15.80;93.70;;;;;;4971443;28;20565;-80
2021/10/25 15:35:22;;;;;;;14.87;13.80;;;15.80;94.30;;;;;;4971164;28;20447;-80
2021/10/25 15:37:51;;;;;;;13.90;13.20;;;15.70;94.50;;;;;;4971651;28;20455;-80
2021/10/25 15:40:18;;;;;;;15.90;14.90;;;15.60;94.70;;;;;;4971632;28;20452;-79
2021/10/25 15:42:47;;;;;;;13.07;12.33;;;15.50;95.10;;;;;;4971368;28;20515;-79
2021/10/25 15:45:14;;;;;;;14.93;13.77;;;15.50;95.50;;;;;;4971375;28;20456;-80
2021/10/25 15:47:41;;;;;;;14.00;13.13;;;15.40;96.00;;;;;;4971344;28;20632;-80
2021/10/25 15:50:08;;;;;;;14.83;13.80;;;15.40;96.40;;;;;;4971521;28;20463;-80
2021/10/25 15:52:36;;;;;;;14.60;13.37;;;15.30;97.00;;;;;;4971423;28;20997;-80
2021/10/25 15:55:05;;;;;;;15.60;14.47;;;15.20;97.50;;;;;;4971295;28;20530;-80
2021/10/25 15:57:34;;;;;;;15.30;14.10;;;15.30;97.90;;;;;;4971535;28;20459;-80
2021/10/25 16:00:00;;;;;;;15.80;14.60;;;15.20;98.30;;;;;;4971341;28;20543;-79
2021/10/25 16:02:27;;;;;;;16.30;14.83;;;15.10;98.70;;;;;;4971232;28;20572;-79
2021/10/25 16:04:54;;;;;;;15.33;14.20;;;15.00;99.20;;;;;;4971292;28;20447;-79
2021/10/25 16:07:20;;;;;;;16.23;15.10;;;14.90;99.50;;;;;;4971170;28;20451;-79
2021/10/25 16:09:47;;;;;;;15.23;14.13;;;14.80;99.90;;;;;;4971323;28;20475;-79
2021/10/25 16:12:17;;;;;;;14.97;14.00;;;14.70;99.90;;;;;;4971248;28;20458;-79
2021/10/25 16:14:45;;;;;;;15.30;14.40;;;14.60;99.90;;;;;;4971204;28;20463;-79
2021/10/25 16:17:12;;;;;;;16.13;14.90;;;14.40;99.90;;;;;;4971069;28;20458;-79
2021/10/25 16:19:42;;;;;;;15.97;14.57;;;14.30;99.90;;;;;;4971233;28;20456;-78
2021/10/25 16:22:09;;;;;;;14.60;13.47;;;14.20;99.90;;;;;;4973745;28;20580;-79
2021/10/25 16:24:36;;;;;;;15.83;14.50;;;14.10;99.90;;;;;;4974572;28;20866;-79
2021/10/25 16:27:03;;;;;;;15.93;15.03;;;14.10;99.90;;;;;;4974885;28;20458;-80
2021/10/25 16:29:32;;;;;;;14.93;13.63;;;14.00;99.90;;;;;;4974778;28;20463;-80
2021/10/25 16:32:01;;;;;;;15.47;14.30;;;13.90;99.90;;;;;;4974639;28;20467;-80
2021/10/25 16:34:28;;;;;;;17.13;14.70;;;13.70;99.90;;;;;;4974522;28;20819;-80
2021/10/25 16:36:55;;;;;;;16.80;15.10;;;13.50;99.90;;;;;;4974609;28;20447;-80
2021/10/25 16:39:22;;;;;;;15.20;13.97;;;13.50;99.90;;;;;;4974484;28;20463;-80
2021/10/25 16:41:49;;;;;;;14.27;13.30;;;13.40;99.90;;;;;;4974430;28;20466;-80
2021/10/25 16:44:15;;;;;;;17.17;15.73;;;13.30;99.90;;;;;;4974587;28;20452;-80
2021/10/25 16:46:43;;;;;;;19.93;15.77;;;13.20;99.90;;;;;;4974326;28;20456;-79
2021/10/25 16:49:14;;;;;;;15.63;14.73;;;13.10;99.90;;;;;;4974388;28;20482;-80
2021/10/25 16:51:45;;;;;;;15.73;14.53;;;13.10;99.90;;;;;;4974432;28;20459;-79
2021/10/25 17:05:57;;;;;;;17.10;15.50;;;12.70;99.90;;;;;;5108048;27;20515;-79
2021/10/25 17:11:08;;;;;;;15.37;14.07;;;12.70;99.90;;;;;;5105995;28;20487;-78
2021/10/25 17:13:36;;;;;;;15.67;14.37;;;12.60;99.90;;;;;;5107919;28;20468;-78
2021/10/25 17:16:03;;;;;;;16.83;14.70;;;12.60;99.90;;;;;;5108018;28;20454;-79
2021/10/25 17:18:30;;;;;;;16.53;15.63;;;12.50;99.90;;;;;;5107859;28;20450;-79
2021/10/25 17:21:02;;;;;;;16.53;15.33;;;12.50;99.90;;;;;;5108119;28;20446;-79
2021/10/25 17:23:32;;;;;;;17.57;15.63;;;12.40;99.90;;;;;;5107723;28;20882;-78
2021/10/25 17:25:59;;;;;;;17.10;15.80;;;12.40;99.90;;;;;;5107820;28;20477;-79
2021/10/25 17:28:26;;;;;;;17.43;16.00;;;12.30;99.90;;;;;;5107780;28;20453;-79
2021/10/25 17:30:53;;;;;;;16.63;15.30;;;12.30;99.90;;;;;;5107747;28;20456;-79
2021/10/25 17:33:20;;;;;;;17.13;15.70;;;12.30;99.90;;;;;;5107584;28;20942;-79
2021/10/25 17:35:46;;;;;;;15.77;14.43;;;12.20;99.90;;;;;;5107871;28;20434;-79
2021/10/25 17:38:15;;;;;;;16.67;15.37;;;12.20;99.90;;;;;;5108086;28;20456;-78
2021/10/25 17:40:44;;;;;;;17.40;15.90;;;12.20;99.90;;;;;;5107635;28;20449;-78
2021/10/25 17:43:14;;;;;;;18.40;16.93;;;12.10;99.90;;;;;;5107713;28;20456;-79
2021/10/25 17:45:41;;;;;;;17.50;16.20;;;12.00;99.90;;;;;;5107462;28;20481;-78
2021/10/25 17:48:08;;;;;;;18.93;17.53;;;11.90;99.90;;;;;;5107551;28;20456;-79
2021/10/25 17:50:35;;;;;;;16.40;15.13;;;11.90;99.90;;;;;;5107368;28;20457;-78
2021/10/25 17:53:02;;;;;;;17.23;15.83;;;11.80;99.90;;;;;;5107471;28;20449;-78
2021/10/25 17:55:30;;;;;;;16.93;15.73;;;11.80;99.90;;;;;;5107347;28;20445;-78
2021/10/25 17:57:57;;;;;;;18.27;16.80;;;11.70;99.90;;;;;;5107203;28;20931;-78
2021/10/25 18:00:24;;;;;;;17.07;15.50;;;11.60;99.90;;;;;;5107019;28;20515;-78
2021/10/25 18:02:55;;;;;;;17.73;16.17;;;11.50;99.90;;;;;;5107010;28;20480;-78
2021/10/25 18:05:22;;;;;;;17.97;16.20;;;11.40;99.90;;;;;;5106559;28;20580;-78
2021/10/25 18:07:51;;;;;;;17.47;15.97;;;11.40;99.90;;;;;;5107114;28;20457;-79
2021/10/25 18:10:18;;;;;;;18.30;16.57;;;11.30;99.90;;;;;;5106798;28;20453;-78
2021/10/25 18:12:47;;;;;;;18.83;17.23;;;11.20;99.90;;;;;;5106940;28;20452;-78
2021/10/25 18:15:13;;;;;;;17.13;15.83;;;11.10;99.90;;;;;;5103945;28;20866;-79
2021/10/25 18:17:41;;;;;;;18.47;16.90;;;11.10;99.90;;;;;;5093317;28;20457;-79
2021/10/25 18:20:09;;;;;;;17.83;16.30;;;11.10;99.90;;;;;;5093265;28;20453;-79
2021/10/25 18:22:36;;;;;;;19.40;17.67;;;11.00;99.90;;;;;;5092780;28;20477;-79
2021/10/25 18:25:04;;;;;;;16.60;15.30;;;10.90;99.90;;;;;;5093180;28;20490;-79
2021/10/25 18:27:30;;;;;;;26.33;17.70;;;10.80;99.90;;;;;;5093068;28;20476;-78
2021/10/25 18:29:58;;;;;;;18.73;17.13;;;10.80;99.90;;;;;;5093071;28;20450;-78
2021/10/25 18:32:25;;;;;;;19.50;17.50;;;10.80;99.90;;;;;;5092847;28;20458;-78
2021/10/25 18:34:52;;;;;;;20.60;18.00;;;10.80;99.90;;;;;;5092835;28;21012;-78
2021/10/25 18:37:19;;;;;;;20.20;17.80;;;10.70;99.90;;;;;;5092896;28;20471;-78
2021/10/25 18:39:46;;;;;;;20.83;18.87;;;10.70;99.90;;;;;;5093027;28;20461;-79
2021/10/25 18:42:14;;;;;;;22.00;17.93;;;10.60;99.90;;;;;;5093132;28;20807;-78
2021/10/25 18:44:41;;;;;;;21.07;19.50;;;10.60;99.90;;;;;;5092856;28;20507;-79
2021/10/25 18:47:12;;;;;;;19.87;18.20;;;10.50;99.90;;;;;;5092834;28;20449;-78
2021/10/25 18:49:39;;;;;;;20.90;18.67;;;10.40;99.90;;;;;;5092906;28;20939;-79
2021/10/25 18:52:06;;;;;;;18.87;17.40;;;10.40;99.90;;;;;;5092830;28;20454;-79
2021/10/25 18:54:33;;;;;;;19.97;18.27;;;10.40;99.90;;;;;;5092622;28;20921;-78
2021/10/25 18:57:00;;;;;;;20.87;18.63;;;10.40;99.90;;;;;;5092715;28;20457;-78
2021/10/25 18:59:28;;;;;;;19.67;17.77;;;10.30;99.90;;;;;;5092407;28;20454;-78
2021/10/25 19:01:55;;;;;;;17.93;16.70;;;10.30;99.90;;;;;;5092653;28;20438;-78
2021/10/25 19:04:23;;;;;;;20.60;18.63;;;10.20;99.90;;;;;;5091947;28;20989;-79
2021/10/25 19:06:50;;;;;;;20.97;17.80;;;10.10;99.90;;;;;;5092491;28;20499;-78
2021/10/25 19:09:17;;;;;;;19.73;18.03;;;10.10;99.90;;;;;;5092219;28;20453;-78
2021/10/25 19:11:44;;;;;;;19.30;17.60;;;9.90;99.90;;;;;;5092596;28;20451;-79
2021/10/25 19:14:12;;;;;;;20.07;18.23;;;9.90;99.90;;;;;;5092372;28;20795;-79
2021/10/25 19:16:40;;;;;;;19.07;17.40;;;9.90;99.90;;;;;;5092309;28;20457;-79
2021/10/25 19:19:10;;;;;;;19.33;17.60;;;9.80;99.90;;;;;;5092234;28;20863;-79
2021/10/25 19:21:40;;;;;;;18.53;16.83;;;9.80;99.90;;;;;;5092211;28;20454;-79
2021/10/25 19:24:08;;;;;;;21.03;19.23;;;9.80;99.90;;;;;;5091983;28;20466;-78
2021/10/25 19:26:36;;;;;;;21.80;19.70;;;9.70;99.90;;;;;;5091618;28;20447;-78
2021/10/25 19:29:05;;;;;;;21.47;19.67;;;9.60;99.90;;;;;;5091511;28;20533;-78
2021/10/25 19:31:32;;;;;;;21.03;19.43;;;9.60;99.90;;;;;;5091826;28;20460;-78
2021/10/25 19:33:59;;;;;;;22.63;20.57;;;9.60;99.90;;;;;;5092024;28;20442;-78
2021/10/25 19:36:26;;;;;;;21.10;19.47;;;9.50;99.90;;;;;;5091799;28;21254;-78
2021/10/25 19:38:54;;;;;;;22.47;20.57;;;9.40;99.90;;;;;;5091821;28;20447;-79
2021/10/25 19:41:22;;;;;;;22.17;20.47;;;9.30;99.90;;;;;;5091638;28;21088;-78
2021/10/25 19:43:50;;;;;;;20.80;19.10;;;9.30;99.90;;;;;;5091733;28;20450;-78
2021/10/25 19:46:18;;;;;;;23.37;21.23;;;9.30;99.90;;;;;;5091664;28;20494;-78
2021/10/25 19:48:45;;;;;;;21.77;19.73;;;9.30;99.90;;;;;;5091957;28;20563;-77
2021/10/25 19:51:11;;;;;;;24.40;20.87;;;9.30;99.90;;;;;;5091738;28;20474;-78
2021/10/25 19:53:45;;;;;;;21.93;19.93;;;9.20;99.90;;;;;;5091485;28;20457;-78
2021/10/25 19:56:13;;;;;;;21.67;19.87;;;9.20;99.90;;;;;;5092210;28;20951;-77
2021/10/25 19:58:40;;;;;;;23.60;21.40;;;9.10;99.90;;;;;;5093177;28;20454;-77
2021/10/25 20:01:09;;;;;;;26.73;20.63;;;9.10;99.90;;;;;;5092595;28;20471;-78
2021/10/25 20:03:36;;;;;;;22.90;20.77;;;9.00;99.90;;;;;;5091235;28;20596;-78
2021/10/25 20:06:03;;;;;;;25.10;22.83;;;9.00;99.90;;;;;;5091671;28;20852;-78
2021/10/25 20:08:31;;;;;;;22.93;20.87;;;9.00;99.90;;;;;;5091283;28;20453;-77
2021/10/25 20:10:58;;;;;;;23.27;21.37;;;9.10;99.90;;;;;;5091280;28;20533;-78
2021/10/25 20:13:27;;;;;;;22.00;19.77;;;9.10;99.90;;;;;;5091092;28;20820;-78